Kalenakliyat 2 — TCBA7 — position and weather

sailwx.info

Track history (hours):
 
Tides and Currents Weather Stations Pressure Air Temp Water Temp Dewpoint Dewpoint Depression Visibility Wind Speed Wind Dir Waves Ship Positions

Kalenakliyat 2

Last reported at 2017-Dec-29 04:26 UTC. Time now 2018-Jan-18 04:01 UTC.
Position N 40°24' E 027°18'.
Warning: this ship's position is 19 days out of date.

Length 72 m; draft 4.5 m.

Type: Cargo ship. MMSI: 271002023.

Date/timePositionNaut miles runAvg speedWind from/ knotsBaromVisibWave heightAir tempDewpointWater temp
2017-Dec-29 04:26N 40°24' E 027°18'0 0.0
2017-Dec-29 03:59N 40°24' E 027°18'0 0.0
2017-Dec-29 03:30N 40°24' E 027°18'0 0.0
2017-Dec-29 02:58N 40°24' E 027°18'0 0.0
2017-Dec-29 02:29N 40°24' E 027°18'0 0.0
2017-Dec-29 01:59N 40°24' E 027°18'72 2.0
2017-Dec-27 13:50N 40°46' E 028°48'3 7.7
2017-Dec-27 13:30N 40°47' E 028°51'5 7.5
2017-Dec-27 12:52N 40°47' E 028°58'3 7.6
2017-Dec-27 12:30N 40°48' E 029°01'4 8.2
2017-Dec-27 12:00N 40°50' E 029°06'4 8.5
2017-Dec-27 11:30N 40°51' E 029°12'3 6.8
2017-Dec-27 11:00N 40°51' E 029°16'0 0.2
2017-Dec-27 10:30N 40°51' E 029°16'0 0.0
2017-Dec-27 10:01N 40°51' E 029°16'0 0.0
2017-Dec-27 09:31N 40°51' E 029°16'0 0.0
2017-Dec-27 09:00N 40°51' E 029°16'0 0.0
2017-Dec-27 08:30N 40°51' E 029°16'0 0.0
2017-Dec-27 08:00N 40°51' E 029°16'0 0.0
2017-Dec-27 07:30N 40°51' E 029°16'0 0.0
2017-Dec-27 07:01N 40°51' E 029°16'0 0.0
2017-Dec-27 05:54N 40°51' E 029°16'0 0.0
2017-Dec-27 05:30N 40°51' E 029°16'0 0.0
2017-Dec-27 05:00N 40°51' E 029°16'1 2.9
2017-Dec-27 04:30N 40°51' E 029°14'0 0.2
2017-Dec-27 04:00N 40°51' E 029°14'0 0.0
2017-Dec-27 03:31N 40°51' E 029°14'0 0.0
2017-Dec-27 03:01N 40°51' E 029°14'0 0.0
2017-Dec-27 02:30N 40°51' E 029°14'0 0.4
2017-Dec-27 02:01N 40°51' E 029°14'4 8.3
2017-Dec-27 01:31N 40°50' E 029°09'510.6
2017-Dec-27 01:01N 40°49' E 029°02'610.8
2017-Dec-27 00:28N 40°47' E 028°55'511.3
2017-Dec-26 23:59N 40°46' E 028°48'  
2017-Dec-24 15:01N 37°56' E 026°53'0 7.8
2017-Dec-24 14:59N 37°56' E 026°53'4 7.7
2017-Dec-24 14:30N 37°54' E 026°57'4 7.4
2017-Dec-24 13:59N 37°51' E 027°01'14 6.0
2017-Dec-24 11:42N 37°37' E 027°00'3 7.4
2017-Dec-24 11:20N 37°35' E 027°02'11 0.2
2017-Dec-22 07:30N 37°24' E 026°60'5 9.1
2017-Dec-22 07:00N 37°27' E 026°55'5 9.6
2017-Dec-22 06:30N 37°30' E 026°51'10 9.5
2017-Dec-22 05:28N 37°36' E 026°41'4 9.3
2017-Dec-22 05:00N 37°39' E 026°37'4 8.8
2017-Dec-22 04:30N 37°42' E 026°33'6 9.1
2017-Dec-22 03:51N 37°47' E 026°28'3 9.1
2017-Dec-22 03:29N 37°49' E 026°26'5 9.1
2017-Dec-22 02:58N 37°53' E 026°23'4 9.3
2017-Dec-22 02:29N 37°57' E 026°21'130 8.9
2017-Dec-21 11:54N 40°08' E 026°22'410.9
2017-Dec-21 11:30N 40°12' E 026°23'611.2
2017-Dec-21 11:00N 40°15' E 026°29'611.4
2017-Dec-21 10:30N 40°19' E 026°35'510.7
2017-Dec-21 10:01N 40°23' E 026°39'510.7
2017-Dec-21 09:31N 40°26' E 026°45'  
Track history (hours):
 
Tides and Currents Weather Stations Pressure Air Temp Water Temp Dewpoint Dewpoint Depression Visibility Wind Speed Wind Dir Waves Ship Positions

Kalenakliyat 2

Last reported at 2017-Dec-29 04:26 UTC. Time now 2018-Jan-18 04:01 UTC.
Position N 40°24' E 027°18'.
Warning: this ship's position is 19 days out of date.

Length 72 m; draft 4.5 m.

Type: Cargo ship. MMSI: 271002023.

Date/timePositionNaut miles runAvg speedWind from/ knotsBaromVisibWave heightAir tempDewpointWater temp
2017-Dec-29 04:26N 40°24' E 027°18'0 0.0
2017-Dec-29 03:59N 40°24' E 027°18'0 0.0
2017-Dec-29 03:30N 40°24' E 027°18'0 0.0
2017-Dec-29 02:58N 40°24' E 027°18'0 0.0
2017-Dec-29 02:29N 40°24' E 027°18'0 0.0
2017-Dec-29 01:59N 40°24' E 027°18'72 2.0
2017-Dec-27 13:50N 40°46' E 028°48'3 7.7
2017-Dec-27 13:30N 40°47' E 028°51'5 7.5
2017-Dec-27 12:52N 40°47' E 028°58'3 7.6
2017-Dec-27 12:30N 40°48' E 029°01'4 8.2
2017-Dec-27 12:00N 40°50' E 029°06'4 8.5
2017-Dec-27 11:30N 40°51' E 029°12'3 6.8
2017-Dec-27 11:00N 40°51' E 029°16'0 0.2
2017-Dec-27 10:30N 40°51' E 029°16'0 0.0
2017-Dec-27 10:01N 40°51' E 029°16'0 0.0
2017-Dec-27 09:31N 40°51' E 029°16'0 0.0
2017-Dec-27 09:00N 40°51' E 029°16'0 0.0
2017-Dec-27 08:30N 40°51' E 029°16'0 0.0
2017-Dec-27 08:00N 40°51' E 029°16'0 0.0
2017-Dec-27 07:30N 40°51' E 029°16'0 0.0
2017-Dec-27 07:01N 40°51' E 029°16'0 0.0
2017-Dec-27 05:54N 40°51' E 029°16'0 0.0
2017-Dec-27 05:30N 40°51' E 029°16'0 0.0
2017-Dec-27 05:00N 40°51' E 029°16'1 2.9
2017-Dec-27 04:30N 40°51' E 029°14'0 0.2
2017-Dec-27 04:00N 40°51' E 029°14'0 0.0
2017-Dec-27 03:31N 40°51' E 029°14'0 0.0
2017-Dec-27 03:01N 40°51' E 029°14'0 0.0
2017-Dec-27 02:30N 40°51' E 029°14'0 0.4
2017-Dec-27 02:01N 40°51' E 029°14'4 8.3
2017-Dec-27 01:31N 40°50' E 029°09'510.6
2017-Dec-27 01:01N 40°49' E 029°02'610.8
2017-Dec-27 00:28N 40°47' E 028°55'511.3
2017-Dec-26 23:59N 40°46' E 028°48'  
2017-Dec-24 15:01N 37°56' E 026°53'0 7.8
2017-Dec-24 14:59N 37°56' E 026°53'4 7.7
2017-Dec-24 14:30N 37°54' E 026°57'4 7.4
2017-Dec-24 13:59N 37°51' E 027°01'14 6.0
2017-Dec-24 11:42N 37°37' E 027°00'3 7.4
2017-Dec-24 11:20N 37°35' E 027°02'11 0.2
2017-Dec-22 07:30N 37°24' E 026°60'5 9.1
2017-Dec-22 07:00N 37°27' E 026°55'5 9.6
2017-Dec-22 06:30N 37°30' E 026°51'10 9.5
2017-Dec-22 05:28N 37°36' E 026°41'4 9.3
2017-Dec-22 05:00N 37°39' E 026°37'4 8.8
2017-Dec-22 04:30N 37°42' E 026°33'6 9.1
2017-Dec-22 03:51N 37°47' E 026°28'3 9.1
2017-Dec-22 03:29N 37°49' E 026°26'5 9.1
2017-Dec-22 02:58N 37°53' E 026°23'4 9.3
2017-Dec-22 02:29N 37°57' E 026°21'130 8.9
2017-Dec-21 11:54N 40°08' E 026°22'410.9
2017-Dec-21 11:30N 40°12' E 026°23'611.2
2017-Dec-21 11:00N 40°15' E 026°29'611.4
2017-Dec-21 10:30N 40°19' E 026°35'510.7
2017-Dec-21 10:01N 40°23' E 026°39'510.7
2017-Dec-21 09:31N 40°26' E 026°45'  

Dump ship's entire track history